sensor_id;sensor_type;location;lat;lon;timestamp;noise_LAeq;noise_LA_min;noise_LA_max;noise_LA01;noise_LA95
66335;Laerm;53138;51.496;6.410;2023-03-11T00:00:00;35.41;30.83;41.38;;
66335;Laerm;53138;51.496;6.410;2023-03-11T00:00:11;42.47;36.13;52.25;;
66335;Laerm;53138;51.496;6.410;2023-03-11T00:00:23;39.22;32.50;46.86;;
66335;Laerm;53138;51.496;6.410;2023-03-11T00:00:35;33.85;31.80;38.03;;
66335;Laerm;53138;51.496;6.410;2023-03-11T00:00:46;32.93;31.29;35.04;;
66335;Laerm;53138;51.496;6.410;2023-03-11T00:00:57;36.13;30.83;54.39;;
66335;Laerm;53138;51.496;6.410;2023-03-11T00:01:08;34.48;31.14;50.93;;
66335;Laerm;53138;51.496;6.410;2023-03-11T00:01:18;40.23;32.05;52.09;;
66335;Laerm;53138;51.496;6.410;2023-03-11T00:01:28;46.52;32.17;60.48;;
66335;Laerm;53138;51.496;6.410;2023-03-11T00:01:39;45.33;32.09;63.16;;
66335;Laerm;53138;51.496;6.410;2023-03-11T00:01:49;48.02;32.18;61.99;;
66335;Laerm;53138;51.496;6.410;2023-03-11T00:02:00;37.85;32.20;51.48;;
66335;Laerm;53138;51.496;6.410;2023-03-11T00:02:10;38.99;32.52;54.02;;
66335;Laerm;53138;51.496;6.410;2023-03-11T00:02:20;36.63;32.17;46.12;;
66335;Laerm;53138;51.496;6.410;2023-03-11T00:02:30;44.34;33.13;55.53;;
66335;Laerm;53138;51.496;6.410;2023-03-11T00:02:41;35.53;31.52;45.30;;
66335;Laerm;53138;51.496;6.410;2023-03-11T00:02:52;41.15;31.69;58.14;;
66335;Laerm;53138;51.496;6.410;2023-03-11T00:03:03;48.34;32.18;59.83;;
66335;Laerm;53138;51.496;6.410;2023-03-11T00:03:15;47.92;31.66;59.56;;
66335;Laerm;53138;51.496;6.410;2023-03-11T00:03:25;37.54;31.03;53.09;;
66335;Laerm;53138;51.496;6.410;2023-03-11T00:03:37;37.43;31.77;51.02;;
66335;Laerm;53138;51.496;6.410;2023-03-11T00:03:48;40.06;31.79;54.76;;
66335;Laerm;53138;51.496;6.410;2023-03-11T00:03:58;41.91;36.29;46.48;;
66335;Laerm;53138;51.496;6.410;2023-03-11T00:04:09;39.23;35.85;44.20;;
66335;Laerm;53138;51.496;6.410;2023-03-11T00:04:19;45.69;34.59;59.30;;
66335;Laerm;53138;51.496;6.410;2023-03-11T00:04:30;39.74;32.91;53.25;;
66335;Laerm;53138;51.496;6.410;2023-03-11T00:04:40;44.86;33.54;53.59;;
66335;Laerm;53138;51.496;6.410;2023-03-11T00:04:50;38.57;34.23;45.60;;
66335;Laerm;53138;51.496;6.410;2023-03-11T00:05:00;41.32;36.22;53.08;;
66335;Laerm;53138;51.496;6.410;2023-03-11T00:05:18;53.89;39.54;64.64;;
66335;Laerm;53138;51.496;6.410;2023-03-11T00:05:32;49.89;34.40;61.45;;
66335;Laerm;53138;51.496;6.410;2023-03-11T00:05:43;33.29;30.86;41.87;;
66335;Laerm;53138;51.496;6.410;2023-03-11T00:05:53;33.15;31.26;36.84;;
66335;Laerm;53138;51.496;6.410;2023-03-11T00:06:03;33.28;30.59;37.41;;
66335;Laerm;53138;51.496;6.410;2023-03-11T00:06:14;33.17;30.47;42.50;;
66335;Laerm;53138;51.496;6.410;2023-03-11T00:06:24;32.56;30.41;38.52;;
66335;Laerm;53138;51.496;6.410;2023-03-11T00:06:34;32.52;31.10;36.66;;
66335;Laerm;53138;51.496;6.410;2023-03-11T00:06:44;32.87;31.20;36.05;;
66335;Laerm;53138;51.496;6.410;2023-03-11T00:06:55;32.64;30.90;36.26;;
66335;Laerm;53138;51.496;6.410;2023-03-11T00:07:05;33.04;30.94;36.98;;
66335;Laerm;53138;51.496;6.410;2023-03-11T00:07:16;33.64;31.82;37.26;;
66335;Laerm;53138;51.496;6.410;2023-03-11T00:07:26;33.42;31.02;39.61;;
66335;Laerm;53138;51.496;6.410;2023-03-11T00:07:36;37.64;31.43;52.53;;
66335;Laerm;53138;51.496;6.410;2023-03-11T00:07:48;33.23;31.37;37.72;;
66335;Laerm;53138;51.496;6.410;2023-03-11T00:07:59;32.70;30.99;34.67;;
66335;Laerm;53138;51.496;6.410;2023-03-11T00:08:10;33.50;31.12;43.11;;
66335;Laerm;53138;51.496;6.410;2023-03-11T00:08:22;34.21;31.71;43.28;;
66335;Laerm;53138;51.496;6.410;2023-03-11T00:08:33;38.93;33.17;44.57;;
66335;Laerm;53138;51.496;6.410;2023-03-11T00:08:43;40.26;36.28;46.58;;
66335;Laerm;53138;51.496;6.410;2023-03-11T00:08:53;38.12;35.35;40.73;;
66335;Laerm;53138;51.496;6.410;2023-03-11T00:09:04;42.49;36.15;51.39;;
66335;Laerm;53138;51.496;6.410;2023-03-11T00:09:14;48.99;40.35;56.87;;
66335;Laerm;53138;51.496;6.410;2023-03-11T00:09:24;46.31;41.88;53.02;;
66335;Laerm;53138;51.496;6.410;2023-03-11T00:09:35;45.66;39.69;50.87;;
66335;Laerm;53138;51.496;6.410;2023-03-11T00:09:45;36.93;31.85;42.92;;
66335;Laerm;53138;51.496;6.410;2023-03-11T00:09:55;32.88;30.54;39.01;;
66335;Laerm;53138;51.496;6.410;2023-03-11T00:10:06;33.62;31.59;36.90;;
66335;Laerm;53138;51.496;6.410;2023-03-11T00:10:21;36.63;31.36;50.50;;
66335;Laerm;53138;51.496;6.410;2023-03-11T00:10:33;37.52;32.29;47.24;;
66335;Laerm;53138;51.496;6.410;2023-03-11T00:10:44;35.34;32.62;43.63;;
66335;Laerm;53138;51.496;6.410;2023-03-11T00:10:57;34.93;32.05;42.46;;
66335;Laerm;53138;51.496;6.410;2023-03-11T00:11:10;37.68;32.28;50.29;;
66335;Laerm;53138;51.496;6.410;2023-03-11T00:11:20;36.44;33.19;43.76;;
66335;Laerm;53138;51.496;6.410;2023-03-11T00:11:31;39.41;34.43;46.88;;
66335;Laerm;53138;51.496;6.410;2023-03-11T00:11:42;39.82;36.39;44.51;;
66335;Laerm;53138;51.496;6.410;2023-03-11T00:11:52;42.92;36.69;48.55;;
66335;Laerm;53138;51.496;6.410;2023-03-11T00:12:02;38.73;33.70;43.14;;
66335;Laerm;53138;51.496;6.410;2023-03-11T00:12:12;37.09;33.41;45.37;;
66335;Laerm;53138;51.496;6.410;2023-03-11T00:12:23;41.56;36.42;49.06;;
66335;Laerm;53138;51.496;6.410;2023-03-11T00:12:33;44.82;39.29;52.86;;
66335;Laerm;53138;51.496;6.410;2023-03-11T00:12:43;45.99;39.91;55.04;;
66335;Laerm;53138;51.496;6.410;2023-03-11T00:12:53;37.15;31.51;42.87;;
66335;Laerm;53138;51.496;6.410;2023-03-11T00:13:04;32.84;30.93;36.17;;
66335;Laerm;53138;51.496;6.410;2023-03-11T00:13:14;32.60;30.87;35.55;;
66335;Laerm;53138;51.496;6.410;2023-03-11T00:13:25;32.82;30.72;37.54;;
66335;Laerm;53138;51.496;6.410;2023-03-11T00:13:36;35.25;31.60;45.78;;
66335;Laerm;53138;51.496;6.410;2023-03-11T00:13:46;34.32;31.97;44.94;;
66335;Laerm;53138;51.496;6.410;2023-03-11T00:13:57;35.19;32.93;38.23;;
66335;Laerm;53138;51.496;6.410;2023-03-11T00:14:07;42.52;35.00;49.17;;
66335;Laerm;53138;51.496;6.410;2023-03-11T00:14:17;43.81;38.18;49.08;;
66335;Laerm;53138;51.496;6.410;2023-03-11T00:14:27;37.64;32.11;44.91;;
66335;Laerm;53138;51.496;6.410;2023-03-11T00:14:37;34.08;31.66;42.52;;
66335;Laerm;53138;51.496;6.410;2023-03-11T00:14:48;33.42;31.66;40.08;;
66335;Laerm;53138;51.496;6.410;2023-03-11T00:14:58;34.05;31.85;41.34;;
66335;Laerm;53138;51.496;6.410;2023-03-11T00:15:08;37.15;32.50;53.94;;
66335;Laerm;53138;51.496;6.410;2023-03-11T00:15:19;39.22;33.38;55.30;;
66335;Laerm;53138;51.496;6.410;2023-03-11T00:15:29;38.83;34.62;44.65;;
66335;Laerm;53138;51.496;6.410;2023-03-11T00:15:40;42.51;37.37;47.36;;
66335;Laerm;53138;51.496;6.410;2023-03-11T00:15:51;39.02;36.07;44.24;;
66335;Laerm;53138;51.496;6.410;2023-03-11T00:16:04;38.80;31.95;45.75;;
66335;Laerm;53138;51.496;6.410;2023-03-11T00:16:14;34.83;32.34;37.80;;
66335;Laerm;53138;51.496;6.410;2023-03-11T00:16:25;33.34;30.95;37.75;;
66335;Laerm;53138;51.496;6.410;2023-03-11T00:16:35;33.22;30.74;40.90;;
66335;Laerm;53138;51.496;6.410;2023-03-11T00:16:45;32.51;30.79;35.96;;
66335;Laerm;53138;51.496;6.410;2023-03-11T00:16:55;31.97;29.88;35.21;;
66335;Laerm;53138;51.496;6.410;2023-03-11T00:17:05;32.40;30.12;39.53;;
66335;Laerm;53138;51.496;6.410;2023-03-11T00:17:16;31.58;29.83;33.07;;
66335;Laerm;53138;51.496;6.410;2023-03-11T00:17:26;32.63;30.51;41.78;;
66335;Laerm;53138;51.496;6.410;2023-03-11T00:17:36;35.08;30.89;45.62;;
66335;Laerm;53138;51.496;6.410;2023-03-11T00:17:47;34.77;31.55;46.47;;
66335;Laerm;53138;51.496;6.410;2023-03-11T00:17:57;38.83;31.94;46.60;;
66335;Laerm;53138;51.496;6.410;2023-03-11T00:18:08;39.58;34.86;45.65;;
66335;Laerm;53138;51.496;6.410;2023-03-11T00:18:18;38.48;34.42;44.34;;
66335;Laerm;53138;51.496;6.410;2023-03-11T00:18:28;38.55;32.72;54.73;;
66335;Laerm;53138;51.496;6.410;2023-03-11T00:18:40;33.99;31.64;38.49;;
66335;Laerm;53138;51.496;6.410;2023-03-11T00:18:50;41.18;33.35;49.12;;
66335;Laerm;53138;51.496;6.410;2023-03-11T00:19:00;43.47;39.94;48.70;;
66335;Laerm;53138;51.496;6.410;2023-03-11T00:19:10;43.77;37.96;47.85;;
66335;Laerm;53138;51.496;6.410;2023-03-11T00:19:21;38.98;33.20;44.41;;
66335;Laerm;53138;51.496;6.410;2023-03-11T00:19:31;33.47;30.57;42.38;;
66335;Laerm;53138;51.496;6.410;2023-03-11T00:19:41;32.92;30.61;40.74;;
66335;Laerm;53138;51.496;6.410;2023-03-11T00:19:51;42.54;30.44;54.88;;
66335;Laerm;53138;51.496;6.410;2023-03-11T00:20:03;48.52;30.20;61.18;;
66335;Laerm;53138;51.496;6.410;2023-03-11T00:20:15;52.49;31.26;64.35;;
66335;Laerm;53138;51.496;6.410;2023-03-11T00:20:31;34.98;30.98;47.38;;
66335;Laerm;53138;51.496;6.410;2023-03-11T00:20:43;33.75;30.76;45.28;;
66335;Laerm;53138;51.496;6.410;2023-03-11T00:20:54;34.78;30.57;53.47;;
66335;Laerm;53138;51.496;6.410;2023-03-11T00:21:04;32.12;30.38;42.78;;
66335;Laerm;53138;51.496;6.410;2023-03-11T00:21:15;33.45;30.91;43.76;;
66335;Laerm;53138;51.496;6.410;2023-03-11T00:21:26;34.32;30.90;48.92;;
66335;Laerm;53138;51.496;6.410;2023-03-11T00:21:36;34.01;31.54;40.51;;
66335;Laerm;53138;51.496;6.410;2023-03-11T00:21:46;33.32;31.35;35.40;;
66335;Laerm;53138;51.496;6.410;2023-03-11T00:21:56;33.42;31.40;36.58;;
66335;Laerm;53138;51.496;6.410;2023-03-11T00:22:07;35.06;32.24;47.69;;
66335;Laerm;53138;51.496;6.410;2023-03-11T00:22:17;39.82;33.04;52.09;;
66335;Laerm;53138;51.496;6.410;2023-03-11T00:22:27;44.39;36.82;52.71;;
66335;Laerm;53138;51.496;6.410;2023-03-11T00:22:37;46.45;36.81;52.35;;
66335;Laerm;53138;51.496;6.410;2023-03-11T00:22:48;34.42;31.01;40.54;;
66335;Laerm;53138;51.496;6.410;2023-03-11T00:23:00;31.84;30.00;39.37;;
66335;Laerm;53138;51.496;6.410;2023-03-11T00:23:10;31.64;30.14;33.37;;
66335;Laerm;53138;51.496;6.410;2023-03-11T00:23:21;33.05;30.22;46.26;;
66335;Laerm;53138;51.496;6.410;2023-03-11T00:23:32;33.73;30.11;51.49;;
66335;Laerm;53138;51.496;6.410;2023-03-11T00:23:44;32.26;30.07;43.61;;
66335;Laerm;53138;51.496;6.410;2023-03-11T00:23:55;35.77;31.15;44.74;;
66335;Laerm;53138;51.496;6.410;2023-03-11T00:24:07;35.11;32.42;41.04;;
66335;Laerm;53138;51.496;6.410;2023-03-11T00:24:17;49.66;38.13;58.77;;
66335;Laerm;53138;51.496;6.410;2023-03-11T00:24:27;55.36;33.35;63.43;;
66335;Laerm;53138;51.496;6.410;2023-03-11T00:24:37;41.94;32.30;57.81;;
66335;Laerm;53138;51.496;6.410;2023-03-11T00:24:48;36.56;31.52;55.53;;
66335;Laerm;53138;51.496;6.410;2023-03-11T00:24:58;37.47;31.99;49.16;;
66335;Laerm;53138;51.496;6.410;2023-03-11T00:25:09;40.10;31.89;50.27;;
66335;Laerm;53138;51.496;6.410;2023-03-11T00:25:19;35.09;32.00;47.10;;
66335;Laerm;53138;51.496;6.410;2023-03-11T00:25:31;40.16;34.75;44.40;;
66335;Laerm;53138;51.496;6.410;2023-03-11T00:25:42;43.36;37.87;50.91;;
66335;Laerm;53138;51.496;6.410;2023-03-11T00:25:53;45.58;33.02;56.22;;
66335;Laerm;53138;51.496;6.410;2023-03-11T00:26:03;35.08;32.79;38.34;;
66335;Laerm;53138;51.496;6.410;2023-03-11T00:26:14;35.77;32.35;38.97;;
66335;Laerm;53138;51.496;6.410;2023-03-11T00:26:24;37.72;32.91;45.38;;
66335;Laerm;53138;51.496;6.410;2023-03-11T00:26:34;40.03;34.64;50.02;;
66335;Laerm;53138;51.496;6.410;2023-03-11T00:26:44;43.86;35.58;54.35;;
66335;Laerm;53138;51.496;6.410;2023-03-11T00:26:54;39.04;34.47;50.31;;
66335;Laerm;53138;51.496;6.410;2023-03-11T00:27:04;42.69;34.06;54.60;;
66335;Laerm;53138;51.496;6.410;2023-03-11T00:27:15;41.98;37.56;47.05;;
66335;Laerm;53138;51.496;6.410;2023-03-11T00:27:25;43.20;33.35;50.53;;
66335;Laerm;53138;51.496;6.410;2023-03-11T00:27:36;34.08;30.63;48.44;;
66335;Laerm;53138;51.496;6.410;2023-03-11T00:27:46;32.46;30.01;38.83;;
66335;Laerm;53138;51.496;6.410;2023-03-11T00:27:56;32.20;29.68;44.03;;
66335;Laerm;53138;51.496;6.410;2023-03-11T00:28:07;31.85;29.76;39.59;;
66335;Laerm;53138;51.496;6.410;2023-03-11T00:28:19;33.18;29.71;50.27;;
66335;Laerm;53138;51.496;6.410;2023-03-11T00:28:31;32.21;29.31;41.61;;
66335;Laerm;53138;51.496;6.410;2023-03-11T00:28:41;39.31;31.19;45.32;;
66335;Laerm;53138;51.496;6.410;2023-03-11T00:28:51;40.19;34.06;46.97;;
66335;Laerm;53138;51.496;6.410;2023-03-11T00:29:02;37.57;31.99;44.57;;
66335;Laerm;53138;51.496;6.410;2023-03-11T00:29:12;33.34;31.03;48.10;;
66335;Laerm;53138;51.496;6.410;2023-03-11T00:29:22;32.62;30.74;35.22;;
66335;Laerm;53138;51.496;6.410;2023-03-11T00:29:32;32.70;30.67;38.39;;
66335;Laerm;53138;51.496;6.410;2023-03-11T00:29:42;31.77;30.05;39.68;;
66335;Laerm;53138;51.496;6.410;2023-03-11T00:29:52;31.46;29.91;32.75;;
66335;Laerm;53138;51.496;6.410;2023-03-11T00:30:03;34.46;30.03;40.12;;
66335;Laerm;53138;51.496;6.410;2023-03-11T00:30:14;42.39;36.73;47.59;;
66335;Laerm;53138;51.496;6.410;2023-03-11T00:30:24;40.39;35.70;48.64;;
66335;Laerm;53138;51.496;6.410;2023-03-11T00:30:35;38.71;32.17;45.99;;
66335;Laerm;53138;51.496;6.410;2023-03-11T00:30:45;33.25;31.12;35.46;;
66335;Laerm;53138;51.496;6.410;2023-03-11T00:30:55;31.66;30.22;35.94;;
66335;Laerm;53138;51.496;6.410;2023-03-11T00:31:06;31.40;29.96;34.55;;
66335;Laerm;53138;51.496;6.410;2023-03-11T00:31:16;31.33;30.12;33.08;;
66335;Laerm;53138;51.496;6.410;2023-03-11T00:31:26;31.40;30.01;36.17;;
66335;Laerm;53138;51.496;6.410;2023-03-11T00:31:37;39.45;29.96;52.25;;
66335;Laerm;53138;51.496;6.410;2023-03-11T00:31:47;32.30;29.57;39.50;;
66335;Laerm;53138;51.496;6.410;2023-03-11T00:31:57;31.15;29.11;36.77;;
66335;Laerm;53138;51.496;6.410;2023-03-11T00:32:07;31.06;29.69;37.74;;
66335;Laerm;53138;51.496;6.410;2023-03-11T00:32:18;31.58;29.54;40.51;;
66335;Laerm;53138;51.496;6.410;2023-03-11T00:32:28;31.00;29.37;38.54;;
66335;Laerm;53138;51.496;6.410;2023-03-11T00:32:38;31.10;29.46;37.92;;
66335;Laerm;53138;51.496;6.410;2023-03-11T00:32:49;31.82;29.37;38.72;;
66335;Laerm;53138;51.496;6.410;2023-03-11T00:33:00;30.80;29.35;33.14;;
66335;Laerm;53138;51.496;6.410;2023-03-11T00:33:11;31.02;29.62;37.57;;
66335;Laerm;53138;51.496;6.410;2023-03-11T00:33:22;35.56;29.93;51.74;;
66335;Laerm;53138;51.496;6.410;2023-03-11T00:33:32;37.37;29.87;54.13;;
66335;Laerm;53138;51.496;6.410;2023-03-11T00:33:42;35.55;29.36;47.64;;
66335;Laerm;53138;51.496;6.410;2023-03-11T00:33:53;35.10;30.11;49.93;;
66335;Laerm;53138;51.496;6.410;2023-03-11T00:34:06;41.80;29.52;54.45;;
66335;Laerm;53138;51.496;6.410;2023-03-11T00:34:16;32.37;29.72;43.41;;
66335;Laerm;53138;51.496;6.410;2023-03-11T00:34:26;35.01;30.26;52.96;;
66335;Laerm;53138;51.496;6.410;2023-03-11T00:34:36;32.21;30.23;44.01;;
66335;Laerm;53138;51.496;6.410;2023-03-11T00:34:46;34.11;30.02;44.74;;
66335;Laerm;53138;51.496;6.410;2023-03-11T00:34:57;32.08;29.89;41.28;;
66335;Laerm;53138;51.496;6.410;2023-03-11T00:35:07;33.24;30.01;44.88;;
66335;Laerm;53138;51.496;6.410;2023-03-11T00:35:22;40.24;34.16;48.99;;
66335;Laerm;53138;51.496;6.410;2023-03-11T00:35:33;41.09;33.65;51.09;;
66335;Laerm;53138;51.496;6.410;2023-03-11T00:35:44;40.23;33.14;52.12;;
66335;Laerm;53138;51.496;6.410;2023-03-11T00:35:54;32.68;30.11;37.81;;
66335;Laerm;53138;51.496;6.410;2023-03-11T00:36:04;31.25;29.90;32.55;;
66335;Laerm;53138;51.496;6.410;2023-03-11T00:36:37;31.45;29.77;35.31;;
66335;Laerm;53138;51.496;6.410;2023-03-11T00:36:46;33.12;29.28;45.70;;
66335;Laerm;53138;51.496;6.410;2023-03-11T00:36:56;30.67;29.34;31.81;;
66335;Laerm;53138;51.496;6.410;2023-03-11T00:37:07;31.23;28.99;41.09;;
66335;Laerm;53138;51.496;6.410;2023-03-11T00:37:17;31.01;29.47;36.39;;
66335;Laerm;53138;51.496;6.410;2023-03-11T00:37:27;30.46;29.12;33.15;;
66335;Laerm;53138;51.496;6.410;2023-03-11T00:37:38;30.44;29.17;31.62;;
66335;Laerm;53138;51.496;6.410;2023-03-11T00:37:51;30.43;29.29;31.73;;
66335;Laerm;53138;51.496;6.410;2023-03-11T00:38:03;30.79;29.02;32.51;;
66335;Laerm;53138;51.496;6.410;2023-03-11T00:38:14;30.77;29.47;36.25;;
66335;Laerm;53138;51.496;6.410;2023-03-11T00:38:24;30.81;29.15;38.55;;
66335;Laerm;53138;51.496;6.410;2023-03-11T00:38:35;31.35;29.60;34.97;;
66335;Laerm;53138;51.496;6.410;2023-03-11T00:38:45;40.77;32.89;46.45;;
66335;Laerm;53138;51.496;6.410;2023-03-11T00:38:55;38.46;33.82;42.76;;
66335;Laerm;53138;51.496;6.410;2023-03-11T00:39:06;39.74;36.01;44.43;;
66335;Laerm;53138;51.496;6.410;2023-03-11T00:39:16;37.05;34.24;45.86;;
66335;Laerm;53138;51.496;6.410;2023-03-11T00:39:26;33.87;30.87;41.96;;
66335;Laerm;53138;51.496;6.410;2023-03-11T00:39:36;31.61;29.60;33.33;;
66335;Laerm;53138;51.496;6.410;2023-03-11T00:39:46;30.84;29.75;32.16;;
66335;Laerm;53138;51.496;6.410;2023-03-11T00:39:57;31.41;30.00;36.68;;
66335;Laerm;53138;51.496;6.410;2023-03-11T00:40:10;31.08;29.84;34.23;;
66335;Laerm;53138;51.496;6.410;2023-03-11T00:40:22;31.21;29.62;38.07;;
66335;Laerm;53138;51.496;6.410;2023-03-11T00:40:34;35.02;29.65;51.19;;
66335;Laerm;53138;51.496;6.410;2023-03-11T00:40:45;33.82;30.00;48.14;;
66335;Laerm;53138;51.496;6.410;2023-03-11T00:40:56;31.68;29.65;39.86;;
66335;Laerm;53138;51.496;6.410;2023-03-11T00:41:06;31.27;29.61;35.30;;
66335;Laerm;53138;51.496;6.410;2023-03-11T00:41:16;31.10;29.13;36.05;;
66335;Laerm;53138;51.496;6.410;2023-03-11T00:41:27;31.90;29.78;37.10;;
66335;Laerm;53138;51.496;6.410;2023-03-11T00:41:37;31.74;29.46;36.83;;
66335;Laerm;53138;51.496;6.410;2023-03-11T00:41:47;31.28;29.79;34.79;;
66335;Laerm;53138;51.496;6.410;2023-03-11T00:41:57;31.64;29.85;35.11;;
66335;Laerm;53138;51.496;6.410;2023-03-11T00:42:08;32.98;30.97;37.70;;
66335;Laerm;53138;51.496;6.410;2023-03-11T00:42:18;40.60;33.76;49.20;;
66335;Laerm;53138;51.496;6.410;2023-03-11T00:42:28;43.72;37.17;51.46;;
66335;Laerm;53138;51.496;6.410;2023-03-11T00:42:38;43.23;32.75;49.87;;
66335;Laerm;53138;51.496;6.410;2023-03-11T00:42:49;36.44;31.11;43.67;;
66335;Laerm;53138;51.496;6.410;2023-03-11T00:42:59;43.62;38.23;49.18;;
66335;Laerm;53138;51.496;6.410;2023-03-11T00:43:10;43.40;37.61;51.24;;
66335;Laerm;53138;51.496;6.410;2023-03-11T00:43:20;36.47;31.39;44.31;;
66335;Laerm;53138;51.496;6.410;2023-03-11T00:43:30;32.29;30.43;36.32;;
66335;Laerm;53138;51.496;6.410;2023-03-11T00:43:40;31.50;30.14;33.30;;
66335;Laerm;53138;51.496;6.410;2023-03-11T00:43:50;32.14;29.62;45.68;;
66335;Laerm;53138;51.496;6.410;2023-03-11T00:44:01;32.44;30.64;35.90;;
66335;Laerm;53138;51.496;6.410;2023-03-11T00:44:12;33.05;30.18;40.58;;
66335;Laerm;53138;51.496;6.410;2023-03-11T00:44:22;33.53;30.38;37.77;;
66335;Laerm;53138;51.496;6.410;2023-03-11T00:44:32;41.29;33.19;46.89;;
66335;Laerm;53138;51.496;6.410;2023-03-11T00:44:42;40.31;35.44;45.31;;
66335;Laerm;53138;51.496;6.410;2023-03-11T00:44:52;41.45;35.72;45.51;;
66335;Laerm;53138;51.496;6.410;2023-03-11T00:45:03;39.65;35.28;46.21;;
66335;Laerm;53138;51.496;6.410;2023-03-11T00:45:13;35.60;32.04;45.83;;
66335;Laerm;53138;51.496;6.410;2023-03-11T00:45:24;32.45;30.63;36.75;;
66335;Laerm;53138;51.496;6.410;2023-03-11T00:45:34;32.89;30.15;44.35;;
66335;Laerm;53138;51.496;6.410;2023-03-11T00:45:45;32.81;30.36;41.98;;
66335;Laerm;53138;51.496;6.410;2023-03-11T00:45:55;32.26;30.52;42.77;;
66335;Laerm;53138;51.496;6.410;2023-03-11T00:46:05;31.56;29.88;38.99;;
66335;Laerm;53138;51.496;6.410;2023-03-11T00:46:15;32.14;30.06;38.83;;
66335;Laerm;53138;51.496;6.410;2023-03-11T00:46:26;31.81;30.19;42.81;;
66335;Laerm;53138;51.496;6.410;2023-03-11T00:46:37;32.09;29.99;40.62;;
66335;Laerm;53138;51.496;6.410;2023-03-11T00:46:47;31.15;29.79;35.31;;
66335;Laerm;53138;51.496;6.410;2023-03-11T00:46:57;35.89;30.41;50.73;;
66335;Laerm;53138;51.496;6.410;2023-03-11T00:47:09;37.13;33.56;44.80;;
66335;Laerm;53138;51.496;6.410;2023-03-11T00:47:19;39.96;35.55;46.97;;
66335;Laerm;53138;51.496;6.410;2023-03-11T00:47:29;41.37;33.23;47.17;;
66335;Laerm;53138;51.496;6.410;2023-03-11T00:47:40;34.64;31.38;42.20;;
66335;Laerm;53138;51.496;6.410;2023-03-11T00:47:50;38.44;32.54;42.91;;
66335;Laerm;53138;51.496;6.410;2023-03-11T00:48:01;37.99;32.96;45.27;;
66335;Laerm;53138;51.496;6.410;2023-03-11T00:48:11;39.82;35.69;47.11;;
66335;Laerm;53138;51.496;6.410;2023-03-11T00:48:22;43.80;36.82;53.16;;
66335;Laerm;53138;51.496;6.410;2023-03-11T00:48:32;42.17;31.80;48.51;;
66335;Laerm;53138;51.496;6.410;2023-03-11T00:48:42;31.96;30.13;36.70;;
66335;Laerm;53138;51.496;6.410;2023-03-11T00:48:52;31.57;29.91;32.98;;
66335;Laerm;53138;51.496;6.410;2023-03-11T00:49:03;31.85;30.14;45.07;;
66335;Laerm;53138;51.496;6.410;2023-03-11T00:49:13;31.30;29.72;32.87;;
66335;Laerm;53138;51.496;6.410;2023-03-11T00:49:23;32.21;30.18;42.24;;
66335;Laerm;53138;51.496;6.410;2023-03-11T00:49:33;31.79;29.78;35.76;;
66335;Laerm;53138;51.496;6.410;2023-03-11T00:49:43;33.49;30.88;41.52;;
66335;Laerm;53138;51.496;6.410;2023-03-11T00:49:54;32.60;30.67;39.59;;
66335;Laerm;53138;51.496;6.410;2023-03-11T00:50:05;32.91;30.77;43.10;;
66335;Laerm;53138;51.496;6.410;2023-03-11T00:50:17;36.92;30.54;55.13;;
66335;Laerm;53138;51.496;6.410;2023-03-11T00:50:29;36.54;30.58;54.58;;
66335;Laerm;53138;51.496;6.410;2023-03-11T00:50:39;33.32;30.91;37.30;;
66335;Laerm;53138;51.496;6.410;2023-03-11T00:50:49;43.03;35.46;48.35;;
66335;Laerm;53138;51.496;6.410;2023-03-11T00:51:00;40.12;36.66;44.30;;
66335;Laerm;53138;51.496;6.410;2023-03-11T00:51:10;41.27;36.40;45.92;;
66335;Laerm;53138;51.496;6.410;2023-03-11T00:51:22;37.89;32.45;45.90;;
66335;Laerm;53138;51.496;6.410;2023-03-11T00:51:32;34.85;31.87;44.37;;
66335;Laerm;53138;51.496;6.410;2023-03-11T00:51:43;33.98;31.61;36.37;;
66335;Laerm;53138;51.496;6.410;2023-03-11T00:51:53;34.48;31.61;39.21;;
66335;Laerm;53138;51.496;6.410;2023-03-11T00:52:04;34.58;32.09;46.61;;
66335;Laerm;53138;51.496;6.410;2023-03-11T00:52:14;33.67;32.12;35.40;;
66335;Laerm;53138;51.496;6.410;2023-03-11T00:52:24;33.56;31.13;40.73;;
66335;Laerm;53138;51.496;6.410;2023-03-11T00:52:34;34.35;31.85;38.50;;
66335;Laerm;53138;51.496;6.410;2023-03-11T00:52:45;37.00;33.60;41.56;;
66335;Laerm;53138;51.496;6.410;2023-03-11T00:52:56;46.52;36.12;53.81;;
66335;Laerm;53138;51.496;6.410;2023-03-11T00:53:06;44.80;37.77;50.09;;
66335;Laerm;53138;51.496;6.410;2023-03-11T00:53:16;37.24;30.80;43.83;;
66335;Laerm;53138;51.496;6.410;2023-03-11T00:53:27;31.37;29.87;33.08;;
66335;Laerm;53138;51.496;6.410;2023-03-11T00:53:37;31.54;29.88;39.90;;
66335;Laerm;53138;51.496;6.410;2023-03-11T00:53:47;31.71;30.04;35.79;;
66335;Laerm;53138;51.496;6.410;2023-03-11T00:53:57;32.27;30.45;44.40;;
66335;Laerm;53138;51.496;6.410;2023-03-11T00:54:09;34.07;29.67;52.28;;
66335;Laerm;53138;51.496;6.410;2023-03-11T00:54:20;31.77;30.02;38.53;;
66335;Laerm;53138;51.496;6.410;2023-03-11T00:54:30;31.62;30.12;33.17;;
66335;Laerm;53138;51.496;6.410;2023-03-11T00:54:40;31.93;30.02;40.98;;
66335;Laerm;53138;51.496;6.410;2023-03-11T00:54:50;31.52;30.09;33.98;;
66335;Laerm;53138;51.496;6.410;2023-03-11T00:55:00;32.76;30.01;43.79;;
66335;Laerm;53138;51.496;6.410;2023-03-11T00:55:12;33.97;30.43;48.95;;
66335;Laerm;53138;51.496;6.410;2023-03-11T00:55:24;31.40;30.11;33.97;;
66335;Laerm;53138;51.496;6.410;2023-03-11T00:55:35;31.30;29.89;37.66;;
66335;Laerm;53138;51.496;6.410;2023-03-11T00:55:45;31.43;30.04;34.38;;
66335;Laerm;53138;51.496;6.410;2023-03-11T00:55:55;32.96;29.56;48.16;;
66335;Laerm;53138;51.496;6.410;2023-03-11T00:56:06;31.41;30.12;33.82;;
66335;Laerm;53138;51.496;6.410;2023-03-11T00:56:17;31.56;29.83;34.04;;
66335;Laerm;53138;51.496;6.410;2023-03-11T00:56:27;32.30;30.19;42.46;;
66335;Laerm;53138;51.496;6.410;2023-03-11T00:56:37;31.64;30.06;33.92;;
66335;Laerm;53138;51.496;6.410;2023-03-11T00:56:47;32.24;30.16;44.88;;
66335;Laerm;53138;51.496;6.410;2023-03-11T00:56:58;31.76;30.13;36.78;;
66335;Laerm;53138;51.496;6.410;2023-03-11T00:57:08;31.60;30.12;39.86;;
66335;Laerm;53138;51.496;6.410;2023-03-11T00:57:18;31.55;29.71;36.53;;
66335;Laerm;53138;51.496;6.410;2023-03-11T00:57:28;35.35;30.34;42.59;;
66335;Laerm;53138;51.496;6.410;2023-03-11T00:57:38;44.36;38.27;50.25;;
66335;Laerm;53138;51.496;6.410;2023-03-11T00:57:56;41.26;37.16;44.57;;
66335;Laerm;53138;51.496;6.410;2023-03-11T00:58:07;38.44;31.60;46.03;;
66335;Laerm;53138;51.496;6.410;2023-03-11T00:58:17;33.14;31.23;36.13;;
66335;Laerm;53138;51.496;6.410;2023-03-11T00:58:27;33.27;30.38;46.09;;
66335;Laerm;53138;51.496;6.410;2023-03-11T00:58:40;32.54;30.47;42.11;;
66335;Laerm;53138;51.496;6.410;2023-03-11T00:58:51;32.15;30.57;38.90;;
66335;Laerm;53138;51.496;6.410;2023-03-11T00:59:01;32.92;30.89;43.85;;
66335;Laerm;53138;51.496;6.410;2023-03-11T00:59:12;32.38;30.41;45.55;;
66335;Laerm;53138;51.496;6.410;2023-03-11T00:59:22;34.19;30.62;53.53;;
66335;Laerm;53138;51.496;6.410;2023-03-11T00:59:33;31.98;30.26;39.99;;
66335;Laerm;53138;51.496;6.410;2023-03-11T00:59:43;33.27;30.30;49.97;;
66335;Laerm;53138;51.496;6.410;2023-03-11T00:59:54;31.83;30.46;38.86;;